Time;durP1;ratioP1;P1;durP2;ratioP2;P2;SDS_P1;SDS_P2;PMS_P1;PMS_P2;Temp;Humidity;BMP_temperature;BMP_pressure;BME280_temperature;BME280_humidity;BME280_pressure;Samples;Min_cycle;Max_cycle;Signal;HPM_P1;HPM_P2
2022/02/19 00:00:09;;;;;;;6.38;1.45;;;8.60;55.50;;;;;;5127809;27;20051;-68
2022/02/19 00:02:42;;;;;;;5.00;0.80;;;8.60;55.60;;;;;;5125149;27;20239;-65
2022/02/19 00:05:10;;;;;;;5.28;0.93;;;8.70;55.80;;;;;;5128201;27;20064;-65
2022/02/19 00:07:46;;;;;;;4.00;0.98;;;8.60;56.00;;;;;;5118830;27;20057;-63
2022/02/19 00:10:14;;;;;;;5.78;1.30;;;8.70;56.10;;;;;;5106938;27;20138;-65
2022/02/19 00:12:48;;;;;;;5.30;0.82;;;8.70;56.20;;;;;;5104792;27;20045;-66
2022/02/19 00:15:18;;;;;;;;;;;8.60;56.30;;;;;;5123474;27;20038;-64
2022/02/19 00:17:48;;;;;;;2.95;0.50;;;8.60;56.20;;;;;;5120293;27;20269;-65
2022/02/19 00:20:16;;;;;;;;;;;8.50;56.60;;;;;;5123173;27;20897;-66
2022/02/19 00:22:45;;;;;;;6.63;1.23;;;8.50;56.90;;;;;;5122194;27;19934;-66
2022/02/19 00:25:19;;;;;;;3.87;0.90;;;8.60;56.80;;;;;;5120902;27;20043;-64
2022/02/19 00:27:47;;;;;;;4.28;1.13;;;8.60;56.50;;;;;;5123193;27;20182;-65
2022/02/19 00:30:15;;;;;;;2.63;0.60;;;8.60;56.00;;;;;;5122607;27;20051;-64
2022/02/19 00:32:42;;;;;;;3.40;0.88;;;8.60;55.80;;;;;;5124522;27;20039;-65
2022/02/19 00:35:09;;;;;;;3.80;0.50;;;8.50;55.60;;;;;;5122164;27;20035;-64
2022/02/19 00:37:37;;;;;;;4.80;1.00;;;8.60;55.60;;;;;;5123609;27;20339;-63
2022/02/19 00:40:10;;;;;;;3.63;0.65;;;8.50;55.60;;;;;;5123519;27;20113;-64
2022/02/19 00:42:38;;;;;;;5.78;1.48;;;8.60;55.80;;;;;;5132945;27;20035;-66
2022/02/19 00:45:06;;;;;;;1.98;0.38;;;8.50;55.90;;;;;;5129578;27;20134;-64
2022/02/19 00:47:33;;;;;;;3.75;0.82;;;8.60;55.80;;;;;;5114827;27;20057;-64
2022/02/19 00:50:01;;;;;;;4.82;0.98;;;8.60;56.00;;;;;;5128061;27;20130;-64
2022/02/19 00:52:31;;;;;;;4.97;0.95;;;8.50;56.60;;;;;;5125505;27;20038;-64
2022/02/19 00:54:58;;;;;;;1.02;0.38;;;8.50;56.50;;;;;;5125743;27;20058;-64
2022/02/19 00:57:26;;;;;;;6.32;0.95;;;8.40;56.80;;;;;;5111164;27;20149;-66
2022/02/19 00:59:54;;;;;;;4.32;0.80;;;8.50;57.20;;;;;;5112044;27;20046;-64
2022/02/19 01:02:22;;;;;;;7.47;0.60;;;8.50;56.90;;;;;;5101064;27;20042;-64
2022/02/19 01:04:59;;;;;;;2.80;1.17;;;8.50;56.80;;;;;;5120307;27;20062;-65
2022/02/19 01:07:29;;;;;;;6.05;0.60;;;8.40;57.00;;;;;;5123983;27;20047;-64
2022/02/19 01:09:58;;;;;;;8.85;1.40;;;8.40;57.80;;;;;;5126574;27;20051;-65
2022/02/19 01:12:28;;;;;;;1.88;0.52;;;8.20;61.20;;;;;;5130073;27;20110;-65
2022/02/19 01:14:58;;;;;;;6.70;1.20;;;8.10;63.20;;;;;;5114695;27;20043;-65
2022/02/19 01:17:34;;;;;;;;;;;8.00;64.70;;;;;;5126031;27;20068;-66
2022/02/19 01:20:03;;;;;;;4.65;0.60;;;7.90;65.30;;;;;;5128620;27;20004;-64
2022/02/19 01:22:35;;;;;;;3.75;0.45;;;7.90;65.50;;;;;;5122378;27;20094;-65
2022/02/19 01:25:03;;;;;;;5.45;0.80;;;7.80;65.30;;;;;;5105048;27;20047;-67
2022/02/19 01:27:32;;;;;;;3.20;0.55;;;7.70;65.20;;;;;;5103608;27;20047;-65
2022/02/19 01:29:59;;;;;;;5.97;0.40;;;7.70;65.10;;;;;;5121191;27;20039;-64
2022/02/19 01:32:26;;;;;;;2.47;0.50;;;7.80;65.10;;;;;;5105640;27;20096;-65
2022/02/19 01:34:57;;;;;;;3.83;1.25;;;7.80;65.10;;;;;;5101984;27;20049;-65
2022/02/19 01:37:24;;;;;;;5.60;0.80;;;7.80;64.90;;;;;;5105176;27;20103;-64
2022/02/19 01:39:59;;;;;;;1.17;0.30;;;7.80;64.50;;;;;;5116679;27;20057;-65
2022/02/19 01:42:27;;;;;;;3.25;0.40;;;7.70;63.90;;;;;;5105723;27;20043;-65
2022/02/19 01:44:59;;;;;;;3.47;0.80;;;7.70;63.50;;;;;;5117757;27;20146;-66
2022/02/19 01:47:26;;;;;;;0.73;0.20;;;7.80;63.20;;;;;;5120424;27;20039;-64
2022/02/19 01:49:53;;;;;;;3.38;0.88;;;7.80;63.20;;;;;;5099969;27;20618;-65
2022/02/19 01:52:25;;;;;;;6.43;1.98;;;7.80;63.10;;;;;;5101445;27;20055;-66
2022/02/19 01:54:56;;;;;;;2.58;0.32;;;7.80;62.70;;;;;;5120609;27;20054;-66
2022/02/19 01:57:47;;;;;;;6.15;0.82;;;7.80;62.20;;;;;;5111787;27;20043;-65
2022/02/19 02:00:24;;;;;;;1.75;0.30;;;7.80;62.30;;;;;;5115448;27;20286;-65
2022/02/19 02:03:15;;;;;;;3.33;0.50;;;7.80;62.20;;;;;;5109321;27;20046;-65
2022/02/19 02:05:48;;;;;;;2.97;0.45;;;7.80;62.20;;;;;;5107259;27;20051;-64
2022/02/19 02:08:15;;;;;;;5.00;0.57;;;7.80;62.10;;;;;;5102299;27;20054;-64
2022/02/19 02:10:47;;;;;;;3.65;0.43;;;7.70;62.50;;;;;;5109398;27;20055;-66
2022/02/19 02:13:28;;;;;;;2.55;0.50;;;7.70;62.20;;;;;;5104995;27;20047;-64
2022/02/19 02:15:59;;;;;;;2.65;0.25;;;7.70;62.00;;;;;;5107685;27;20061;-64
2022/02/19 02:18:50;;;;;;;4.22;0.60;;;7.60;61.30;;;;;;5124338;27;20054;-65
2022/02/19 02:21:18;;;;;;;3.72;0.60;;;7.70;61.10;;;;;;5117613;27;20047;-64
2022/02/19 02:23:50;;;;;;;2.83;0.52;;;7.70;61.00;;;;;;5127706;27;20123;-65
2022/02/19 02:26:19;;;;;;;4.07;1.08;;;7.70;60.70;;;;;;5115154;27;20075;-65
2022/02/19 02:28:46;;;;;;;1.83;0.57;;;7.70;60.90;;;;;;5104302;27;20123;-64
2022/02/19 02:31:15;;;;;;;2.33;0.40;;;7.70;61.30;;;;;;5106194;27;20051;-64
2022/02/19 02:33:43;;;;;;;4.25;0.63;;;7.70;61.40;;;;;;5100952;27;20050;-63
2022/02/19 02:36:15;;;;;;;2.10;0.20;;;7.60;61.50;;;;;;5104441;27;20092;-66
2022/02/19 02:38:53;;;;;;;4.90;0.50;;;7.70;61.50;;;;;;5102832;27;20055;-65
2022/02/19 02:41:25;;;;;;;2.28;0.52;;;7.70;61.60;;;;;;5121794;27;20548;-65
2022/02/19 02:43:55;;;;;;;4.00;0.80;;;7.70;61.40;;;;;;5103999;27;20043;-64
2022/02/19 02:46:22;;;;;;;7.22;1.08;;;7.70;61.60;;;;;;5127677;27;20043;-64
2022/02/19 02:48:51;;;;;;;3.40;1.08;;;7.70;61.30;;;;;;5118110;27;20058;-65
2022/02/19 02:51:21;;;;;;;4.10;0.60;;;7.70;61.50;;;;;;5110243;27;20059;-66
2022/02/19 02:53:52;;;;;;;2.63;1.08;;;7.80;61.40;;;;;;5111800;27;20172;-65
2022/02/19 02:56:20;;;;;;;2.03;0.40;;;7.80;61.10;;;;;;5129148;27;20046;-66
2022/02/19 02:58:47;;;;;;;4.38;0.68;;;7.70;61.20;;;;;;5129243;27;22339;-65
2022/02/19 03:01:14;;;;;;;4.07;0.60;;;7.70;61.10;;;;;;5106243;27;20060;-65
2022/02/19 03:03:43;;;;;;;4.03;0.40;;;7.70;61.00;;;;;;5108611;27;20071;-64
2022/02/19 03:06:16;;;;;;;2.28;0.63;;;7.70;61.10;;;;;;5111793;27;21750;-65
2022/02/19 03:08:51;;;;;;;1.50;0.40;;;7.60;60.80;;;;;;5099309;27;20053;-65
2022/02/19 03:11:20;;;;;;;5.55;0.50;;;7.70;60.50;;;;;;5105188;27;20112;-67
2022/02/19 03:13:49;;;;;;;2.38;0.40;;;7.70;60.30;;;;;;5116152;27;20051;-65
2022/02/19 03:16:17;;;;;;;2.88;0.57;;;7.60;60.30;;;;;;5106131;27;20039;-64
2022/02/19 03:18:44;;;;;;;3.85;0.65;;;7.60;60.10;;;;;;5113692;27;20043;-65
2022/02/19 03:21:15;;;;;;;2.70;0.40;;;7.60;60.20;;;;;;5127478;27;20039;-64
2022/02/19 03:23:42;;;;;;;3.90;0.45;;;7.50;59.80;;;;;;5129124;27;20081;-65
2022/02/19 03:26:12;;;;;;;4.78;0.98;;;7.60;59.60;;;;;;5115660;27;20077;-66
2022/02/19 03:28:43;;;;;;;2.00;0.30;;;7.60;59.40;;;;;;5113392;27;20047;-67
2022/02/19 03:31:14;;;;;;;4.47;2.03;;;7.60;59.20;;;;;;5108386;27;20051;-64
2022/02/19 03:34:06;;;;;;;4.78;0.80;;;7.60;59.20;;;;;;5124306;27;20049;-64
2022/02/19 03:36:33;;;;;;;2.75;1.08;;;7.60;59.40;;;;;;5110783;27;20710;-64
2022/02/19 03:39:00;;;;;;;4.57;0.75;;;7.60;59.60;;;;;;5117978;27;20089;-67
2022/02/19 03:41:29;;;;;;;2.72;1.00;;;7.60;60.90;;;;;;5113181;27;20563;-65
2022/02/19 03:44:01;;;;;;;4.40;0.70;;;7.50;61.60;;;;;;5113855;27;20040;-66
2022/02/19 03:46:36;;;;;;;3.60;0.65;;;7.40;62.40;;;;;;5121263;27;20054;-65
2022/02/19 03:49:21;;;;;;;3.78;0.47;;;7.40;62.80;;;;;;5130958;27;20050;-64
2022/02/19 03:51:53;;;;;;;3.85;0.73;;;7.20;63.20;;;;;;5130111;27;20050;-64
2022/02/19 03:54:20;;;;;;;3.17;0.35;;;7.20;63.00;;;;;;5129243;27;20058;-64
2022/02/19 03:56:50;;;;;;;2.58;0.30;;;7.20;63.30;;;;;;5109976;27;20488;-65
2022/02/19 03:59:19;;;;;;;2.00;0.30;;;7.30;63.40;;;;;;5114996;27;20126;-65
2022/02/19 04:01:49;;;;;;;2.50;0.28;;;7.30;63.40;;;;;;5127991;27;20046;-64
2022/02/19 04:04:22;;;;;;;3.28;0.80;;;7.20;63.70;;;;;;5122589;27;20043;-66
2022/02/19 04:06:53;;;;;;;2.33;0.55;;;7.20;63.60;;;;;;5129187;27;20054;-65
2022/02/19 04:09:43;;;;;;;2.17;0.40;;;7.20;63.80;;;;;;5127505;27;20055;-66
2022/02/19 04:12:11;;;;;;;2.20;0.30;;;7.10;64.10;;;;;;5112985;27;20168;-65
2022/02/19 04:14:40;;;;;;;1.17;0.32;;;7.10;63.80;;;;;;5111508;27;20038;-64
2022/02/19 04:17:08;;;;;;;3.38;0.40;;;7.10;64.40;;;;;;5110912;27;20070;-67
2022/02/19 04:19:36;;;;;;;1.48;0.30;;;7.00;64.20;;;;;;5106704;27;20071;-66
2022/02/19 04:22:04;;;;;;;4.72;0.50;;;7.10;64.30;;;;;;5113440;27;20107;-64
2022/02/19 04:24:38;;;;;;;2.60;0.70;;;7.10;64.40;;;;;;5108014;27;21061;-65
2022/02/19 04:27:11;;;;;;;2.58;0.35;;;7.00;64.40;;;;;;5107901;27;20061;-65
2022/02/19 04:29:40;;;;;;;4.07;0.60;;;7.10;64.60;;;;;;5109826;27;20046;-64
2022/02/19 04:32:10;;;;;;;3.22;0.45;;;7.00;64.90;;;;;;5114326;27;20124;-65
2022/02/19 04:34:48;;;;;;;2.75;0.40;;;7.00;65.00;;;;;;5115181;27;20056;-63
2022/02/19 04:37:16;;;;;;;1.75;0.57;;;7.00;65.40;;;;;;5106441;27;20605;-65
2022/02/19 04:39:44;;;;;;;1.50;0.52;;;7.00;65.50;;;;;;5107346;27;21067;-64
2022/02/19 04:42:25;;;;;;;2.35;0.70;;;6.90;65.70;;;;;;5111623;27;20612;-65
2022/02/19 04:44:54;;;;;;;1.15;0.70;;;6.90;65.70;;;;;;5110150;27;20047;-66
2022/02/19 04:47:22;;;;;;;3.40;0.75;;;6.90;65.80;;;;;;5114470;27;20051;-65
2022/02/19 04:49:50;;;;;;;2.20;0.30;;;6.80;65.90;;;;;;5105779;27;20050;-64
2022/02/19 04:52:22;;;;;;;2.15;0.20;;;6.80;65.90;;;;;;5109852;27;20074;-65
2022/02/19 04:54:53;;;;;;;3.15;0.20;;;6.80;65.60;;;;;;5105261;27;20549;-66
2022/02/19 04:57:23;;;;;;;3.83;0.98;;;6.80;65.50;;;;;;5112571;27;20326;-64
2022/02/19 04:59:51;;;;;;;7.28;0.50;;;6.70;65.40;;;;;;5105988;27;20067;-64
2022/02/19 05:02:25;;;;;;;2.55;0.50;;;6.70;65.50;;;;;;5109587;27;20039;-66
2022/02/19 05:04:53;;;;;;;1.85;0.22;;;6.70;65.40;;;;;;5105136;27;20094;-64
2022/02/19 05:07:30;;;;;;;0.85;0.38;;;6.70;65.30;;;;;;5103892;27;20043;-66
2022/02/19 05:09:58;;;;;;;2.75;0.43;;;6.70;65.10;;;;;;5107374;27;20058;-66
2022/02/19 05:12:31;;;;;;;2.20;0.47;;;6.70;65.20;;;;;;5105501;27;20047;-65
2022/02/19 05:15:04;;;;;;;3.00;0.75;;;6.70;65.20;;;;;;5103627;27;20051;-65
2022/02/19 05:17:44;;;;;;;1.90;0.40;;;6.70;65.10;;;;;;5102302;27;20067;-66
2022/02/19 05:20:12;;;;;;;1.75;0.30;;;6.70;65.20;;;;;;5110029;27;20035;-65
2022/02/19 05:22:42;;;;;;;2.95;0.47;;;6.60;65.40;;;;;;5110813;27;20050;-65
2022/02/19 05:25:10;;;;;;;2.88;0.47;;;6.60;65.40;;;;;;5109306;27;20039;-66
2022/02/19 05:27:37;;;;;;;0.47;0.13;;;6.60;65.50;;;;;;5109162;27;20139;-63
2022/02/19 05:30:09;;;;;;;2.33;0.40;;;6.60;65.10;;;;;;5109765;27;20168;-65
2022/02/19 05:32:44;;;;;;;3.40;0.50;;;6.60;64.80;;;;;;5106865;27;20047;-64
2022/02/19 05:35:24;;;;;;;3.75;0.28;;;6.70;64.60;;;;;;5109520;27;20180;-69
2022/02/19 05:37:52;;;;;;;0.52;0.15;;;6.70;64.70;;;;;;5126820;27;20047;-63
2022/02/19 05:40:20;;;;;;;2.47;0.20;;;6.70;64.60;;;;;;5107220;27;20082;-64
2022/02/19 05:42:48;;;;;;;1.15;0.20;;;6.70;64.60;;;;;;5105816;27;20039;-68
2022/02/19 05:45:19;;;;;;;1.45;0.32;;;6.70;64.60;;;;;;5122103;27;20050;-66
2022/02/19 05:47:53;;;;;;;3.60;0.85;;;6.70;64.60;;;;;;5108815;27;20169;-65
2022/02/19 05:50:36;;;;;;;5.97;0.75;;;6.70;64.70;;;;;;5102586;27;20511;-65
2022/02/19 05:53:11;;;;;;;3.47;0.32;;;6.70;64.80;;;;;;5106213;27;20161;-64
2022/02/19 05:55:43;;;;;;;1.42;0.32;;;6.70;65.00;;;;;;5102130;27;20334;-64
2022/02/19 05:58:13;;;;;;;3.45;0.43;;;6.70;65.20;;;;;;5111494;27;20499;-66
2022/02/19 06:00:52;;;;;;;0.90;0.28;;;6.70;65.20;;;;;;5109677;27;20051;-64
2022/02/19 06:03:21;;;;;;;3.67;0.30;;;6.70;65.50;;;;;;5106491;27;20070;-64
2022/02/19 06:05:48;;;;;;;1.42;0.25;;;6.70;65.90;;;;;;5106877;27;20051;-64
2022/02/19 06:08:17;;;;;;;2.95;0.80;;;6.70;66.10;;;;;;5106890;27;20116;-65
2022/02/19 06:10:45;;;;;;;2.83;0.35;;;6.70;66.40;;;;;;5111255;27;20383;-64
2022/02/19 06:13:15;;;;;;;5.50;0.57;;;6.70;66.50;;;;;;5127164;27;20152;-63
2022/02/19 06:15:49;;;;;;;2.88;0.20;;;6.70;66.60;;;;;;5111972;27;20051;-65
2022/02/19 06:18:31;;;;;;;6.55;1.10;;;6.60;66.70;;;;;;5111338;27;20055;-65
2022/02/19 06:21:01;;;;;;;1.50;0.22;;;6.60;66.90;;;;;;5111330;27;20072;-64
2022/02/19 06:23:37;;;;;;;2.97;0.40;;;6.60;66.90;;;;;;5116345;27;20055;-64
2022/02/19 06:26:07;;;;;;;2.28;0.30;;;6.60;66.90;;;;;;5131014;27;20101;-64
2022/02/19 06:28:57;;;;;;;1.92;0.50;;;6.60;66.70;;;;;;5116191;27;20050;-65
2022/02/19 06:31:25;;;;;;;4.32;0.95;;;6.60;66.60;;;;;;5112242;27;20035;-64
2022/02/19 06:33:54;;;;;;;1.73;0.30;;;6.60;66.50;;;;;;5112791;27;20047;-64
2022/02/19 06:36:24;;;;;;;2.28;0.50;;;6.60;66.40;;;;;;5119571;27;20103;-66
2022/02/19 06:38:53;;;;;;;4.63;0.40;;;6.60;66.40;;;;;;5114545;27;20106;-65
2022/02/19 06:41:28;;;;;;;2.20;0.55;;;6.60;66.40;;;;;;5111442;27;20073;-65
2022/02/19 06:44:09;;;;;;;2.60;0.47;;;6.60;66.40;;;;;;5116253;27;20043;-65
2022/02/19 06:46:40;;;;;;;3.50;0.32;;;6.50;66.20;;;;;;5114892;27;20043;-65
2022/02/19 06:49:09;;;;;;;1.70;0.32;;;6.50;66.00;;;;;;5121184;27;20142;-65
2022/02/19 06:51:40;;;;;;;3.58;1.00;;;6.50;65.90;;;;;;5121196;27;20062;-64
2022/02/19 06:54:08;;;;;;;4.10;0.63;;;6.60;65.60;;;;;;5116145;27;20594;-65
2022/02/19 06:56:36;;;;;;;4.82;0.65;;;6.60;65.40;;;;;;5111818;27;20078;-66
2022/02/19 06:59:05;;;;;;;4.93;0.50;;;6.50;65.30;;;;;;5116988;27;20415;-66
2022/02/19 07:01:33;;;;;;;3.37;0.60;;;6.60;65.40;;;;;;5121209;27;20531;-65
2022/02/19 07:04:01;;;;;;;1.08;0.30;;;6.60;65.30;;;;;;5113362;27;20075;-65
2022/02/19 07:06:50;;;;;;;3.58;0.50;;;6.60;65.10;;;;;;5128396;27;20047;-66
2022/02/19 07:09:18;;;;;;;1.98;0.68;;;6.60;65.10;;;;;;5122688;27;20081;-67
2022/02/19 07:11:46;;;;;;;3.15;0.45;;;6.60;64.90;;;;;;5113625;27;20035;-66
2022/02/19 07:14:16;;;;;;;4.50;0.68;;;6.60;64.70;;;;;;5108174;27;20515;-66
2022/02/19 07:16:54;;;;;;;2.22;0.55;;;6.70;64.70;;;;;;5110171;27;20051;-64
2022/02/19 07:19:22;;;;;;;4.47;0.50;;;6.60;64.50;;;;;;5111147;27;20047;-64
2022/02/19 07:21:51;;;;;;;3.08;0.30;;;6.60;64.40;;;;;;5104698;27;20139;-65
2022/02/19 07:24:19;;;;;;;3.58;0.50;;;6.60;64.20;;;;;;5106839;27;20121;-63
2022/02/19 07:26:46;;;;;;;2.17;0.43;;;6.60;64.20;;;;;;5109284;27;20051;-64
2022/02/19 07:29:14;;;;;;;1.75;0.52;;;6.60;64.10;;;;;;5108336;27;20035;-66
2022/02/19 07:31:46;;;;;;;4.65;0.47;;;6.60;64.50;;;;;;5111451;27;20043;-65
2022/02/19 07:34:18;;;;;;;6.80;0.52;;;6.60;64.40;;;;;;5106543;27;20495;-66
2022/02/19 07:36:46;;;;;;;4.60;0.40;;;6.70;64.50;;;;;;5121336;27;20051;-64
2022/02/19 07:39:15;;;;;;;5.22;0.70;;;6.70;64.40;;;;;;5105299;27;20089;-65
2022/02/19 07:41:50;;;;;;;6.93;0.40;;;6.70;64.30;;;;;;5108728;27;20084;-64
2022/02/19 07:44:18;;;;;;;1.90;0.70;;;6.70;64.30;;;;;;5112011;27;20051;-64
2022/02/19 07:47:06;;;;;;;5.53;0.40;;;6.70;64.40;;;;;;5082875;27;20055;-64
2022/02/19 07:58:29;;;;;;;1.50;0.30;;;6.70;64.20;;;;;;5112507;27;20720;-67
2022/02/19 08:01:00;;;;;;;1.27;0.35;;;6.70;64.20;;;;;;5111113;27;20047;-65
2022/02/19 08:03:38;;;;;;;2.40;0.32;;;6.70;64.00;;;;;;5112728;27;20047;-65
2022/02/19 08:06:10;;;;;;;0.88;0.30;;;6.70;64.20;;;;;;5108989;27;20051;-65
2022/02/19 08:08:40;;;;;;;6.53;0.98;;;6.80;64.20;;;;;;5109829;27;20047;-65
2022/02/19 08:11:16;;;;;;;2.05;0.30;;;6.80;64.10;;;;;;5108737;27;20050;-64
2022/02/19 08:13:44;;;;;;;3.30;0.35;;;6.90;64.10;;;;;;5110638;27;20054;-64
2022/02/19 08:16:12;;;;;;;2.10;0.95;;;6.80;63.80;;;;;;5110181;27;20046;-64
2022/02/19 08:18:39;;;;;;;3.80;0.50;;;6.90;63.60;;;;;;5118866;27;20063;-64
2022/02/19 08:21:08;;;;;;;2.75;0.30;;;6.90;63.30;;;;;;5134196;27;20070;-65
2022/02/19 08:23:38;;;;;;;2.67;1.30;;;6.90;63.20;;;;;;5131655;27;20047;-64
2022/02/19 08:26:06;;;;;;;1.92;0.30;;;6.90;63.00;;;;;;5127139;27;20715;-64
2022/02/19 08:28:35;;;;;;;2.45;0.73;;;7.00;62.80;;;;;;5129686;27;20113;-65
2022/02/19 08:31:03;;;;;;;4.15;0.70;;;7.00;62.80;;;;;;5134263;27;20054;-66
2022/02/19 08:33:31;;;;;;;4.55;0.77;;;7.10;62.90;;;;;;5133539;27;20788;-64
2022/02/19 08:35:58;;;;;;;3.78;1.05;;;7.10;63.20;;;;;;5130329;27;20178;-63
2022/02/19 08:38:26;;;;;;;1.27;0.40;;;7.10;63.20;;;;;;5129368;27;20042;-64
2022/02/19 08:40:53;;;;;;;7.90;0.63;;;7.20;63.30;;;;;;5127571;27;20055;-64
2022/02/19 08:43:21;;;;;;;2.45;0.52;;;7.20;63.20;;;;;;5127838;27;20035;-65
2022/02/19 08:45:50;;;;;;;1.80;0.30;;;7.10;63.10;;;;;;5125141;27;20043;-64
2022/02/19 08:48:18;;;;;;;5.75;1.00;;;7.20;62.90;;;;;;5128601;27;20180;-64
2022/02/19 08:50:51;;;;;;;1.98;0.63;;;7.20;62.50;;;;;;5130733;27;20047;-63
2022/02/19 08:53:22;;;;;;;4.65;0.75;;;7.20;62.30;;;;;;5127859;27;20142;-64
2022/02/19 08:55:50;;;;;;;2.78;0.55;;;7.20;62.10;;;;;;5129051;27;20061;-63
2022/02/19 08:58:18;;;;;;;3.58;0.75;;;7.20;62.10;;;;;;5130183;27;20561;-66
2022/02/19 09:00:46;;;;;;;2.65;0.40;;;7.20;62.00;;;;;;5124560;27;20058;-64
2022/02/19 09:03:16;;;;;;;4.13;0.75;;;7.30;61.80;;;;;;5130506;27;20061;-63
2022/02/19 09:05:44;;;;;;;3.15;0.60;;;7.20;61.90;;;;;;5127815;27;20098;-64
2022/02/19 09:08:14;;;;;;;1.80;0.30;;;7.20;61.70;;;;;;5128197;27;20047;-64
2022/02/19 09:10:42;;;;;;;2.83;0.68;;;7.20;61.30;;;;;;5126561;27;20499;-64
2022/02/19 09:13:09;;;;;;;0.73;0.30;;;7.30;61.40;;;;;;5129446;27;20048;-64
2022/02/19 09:15:38;;;;;;;2.42;0.70;;;7.30;61.40;;;;;;5130793;27;20071;-64
2022/02/19 09:18:07;;;;;;;5.28;0.45;;;7.20;61.00;;;;;;5138512;27;20514;-66
2022/02/19 09:20:38;;;;;;;2.90;0.32;;;7.30;61.00;;;;;;5140753;27;20128;-64
2022/02/19 09:23:06;;;;;;;1.67;0.28;;;7.30;60.70;;;;;;5133275;27;20060;-64
2022/02/19 09:25:34;;;;;;;1.00;0.10;;;7.40;60.60;;;;;;5127966;27;20047;-64
2022/02/19 09:28:08;;;;;;;3.97;0.45;;;7.50;60.20;;;;;;5127408;27;20562;-64
2022/02/19 09:30:36;;;;;;;4.00;0.52;;;7.50;60.10;;;;;;5128021;27;20932;-64
2022/02/19 09:33:04;;;;;;;2.15;0.50;;;7.70;59.50;;;;;;5128308;27;20054;-65
2022/02/19 09:35:32;;;;;;;0.68;0.32;;;7.70;59.00;;;;;;5128666;27;20035;-64
2022/02/19 09:38:01;;;;;;;2.38;0.60;;;7.70;59.10;;;;;;5129418;27;20049;-64
2022/02/19 09:40:28;;;;;;;3.65;0.65;;;7.80;58.90;;;;;;5125828;27;20043;-65
2022/02/19 09:42:56;;;;;;;3.28;0.82;;;7.80;58.60;;;;;;5127065;27;20047;-64
2022/02/19 09:45:29;;;;;;;3.70;0.70;;;7.70;58.00;;;;;;5126445;27;20108;-64
2022/02/19 09:47:57;;;;;;;3.53;0.93;;;7.70;57.60;;;;;;5126132;27;20793;-70
2022/02/19 09:50:29;;;;;;;1.83;0.60;;;7.70;57.80;;;;;;5126744;27;20046;-64
2022/02/19 09:52:57;;;;;;;0.50;0.40;;;7.80;58.20;;;;;;5128362;27;20035;-64
2022/02/19 09:55:27;;;;;;;1.98;0.43;;;7.90;58.20;;;;;;5128941;27;20039;-64
2022/02/19 09:57:55;;;;;;;2.03;0.63;;;7.80;57.60;;;;;;5129748;27;20488;-64
2022/02/19 10:00:36;;;;;;;2.42;0.63;;;8.00;57.70;;;;;;5127010;27;20051;-64
2022/02/19 10:03:05;;;;;;;1.10;0.40;;;8.00;57.40;;;;;;5131545;27;20047;-64
2022/02/19 10:05:35;;;;;;;3.80;0.40;;;8.00;57.10;;;;;;5129939;27;20035;-64
2022/02/19 10:08:05;;;;;;;6.13;0.82;;;8.10;56.70;;;;;;5129874;27;20050;-64
2022/02/19 10:10:35;;;;;;;5.65;0.73;;;8.10;56.80;;;;;;5130672;27;20039;-64
2022/02/19 10:13:03;;;;;;;2.08;0.20;;;8.10;56.00;;;;;;5131088;27;20039;-66
2022/02/19 10:15:49;;;;;;;2.17;1.23;;;8.10;55.90;;;;;;5131154;27;20046;-64
2022/02/19 10:18:26;;;;;;;1.80;0.35;;;8.20;55.80;;;;;;5131250;27;20051;-64
2022/02/19 10:20:55;;;;;;;3.08;0.80;;;8.30;55.50;;;;;;5115307;27;20510;-65
2022/02/19 10:23:25;;;;;;;4.38;1.23;;;8.30;55.70;;;;;;5112008;27;20566;-65
2022/02/19 10:26:04;;;;;;;1.85;0.50;;;8.40;55.60;;;;;;5130449;27;20051;-64
2022/02/19 10:28:31;;;;;;;3.88;0.85;;;8.40;55.50;;;;;;5130832;27;20047;-65
2022/02/19 10:31:11;;;;;;;4.00;0.70;;;8.40;55.70;;;;;;5130383;27;20039;-65
2022/02/19 10:33:39;;;;;;;4.78;2.22;;;8.50;55.60;;;;;;5131161;27;20042;-64
2022/02/19 10:36:14;;;;;;;2.92;0.57;;;8.50;55.30;;;;;;5132069;27;20051;-64
2022/02/19 10:38:57;;;;;;;1.25;0.40;;;8.60;55.30;;;;;;5131402;27;20571;-63
2022/02/19 10:41:37;;;;;;;2.00;0.52;;;8.70;55.20;;;;;;5130057;27;20062;-63
2022/02/19 10:44:22;;;;;;;1.33;0.35;;;8.70;54.50;;;;;;5143153;27;20043;-64
2022/02/19 10:46:49;;;;;;;4.28;1.02;;;8.70;53.90;;;;;;5142452;27;20069;-64
2022/02/19 10:49:17;;;;;;;1.05;0.30;;;8.60;53.70;;;;;;5146896;27;20046;-64
2022/02/19 10:51:45;;;;;;;0.85;0.20;;;8.70;53.90;;;;;;5145229;27;20042;-64
2022/02/19 10:54:21;;;;;;;6.35;0.93;;;8.70;53.60;;;;;;5141159;27;20132;-64
2022/02/19 10:56:53;;;;;;;7.35;2.45;;;8.70;53.50;;;;;;5145745;27;20195;-64
2022/02/19 10:59:20;;;;;;;2.42;0.50;;;8.70;53.70;;;;;;5143524;27;20043;-64
2022/02/19 11:01:50;;;;;;;2.20;0.30;;;8.70;53.60;;;;;;5141133;27;20046;-63
2022/02/19 11:04:19;;;;;;;3.20;0.38;;;8.70;52.90;;;;;;5145068;27;20050;-64
2022/02/19 11:06:48;;;;;;;2.58;0.80;;;8.70;52.90;;;;;;5138748;27;20472;-64
2022/02/19 11:09:17;;;;;;;4.07;0.60;;;8.70;53.00;;;;;;5127772;27;20070;-65
2022/02/19 11:11:51;;;;;;;3.05;0.25;;;8.70;53.20;;;;;;5144375;27;20049;-64
2022/02/19 11:14:18;;;;;;;3.78;0.50;;;8.80;53.20;;;;;;5142718;27;20049;-64
2022/02/19 11:16:48;;;;;;;5.75;0.43;;;8.80;53.40;;;;;;5123612;27;20073;-65
2022/02/19 11:19:16;;;;;;;4.47;0.50;;;8.80;53.60;;;;;;5122937;27;20055;-64
2022/02/19 11:21:44;;;;;;;1.95;0.60;;;8.70;52.90;;;;;;5141288;27;20044;-64
2022/02/19 11:24:17;;;;;;;2.33;0.50;;;8.70;53.10;;;;;;5141051;27;20043;-65
2022/02/19 11:26:47;;;;;;;3.92;0.70;;;8.70;53.10;;;;;;5129743;27;20555;-66
2022/02/19 11:29:24;;;;;;;1.55;0.43;;;8.70;52.50;;;;;;5121920;27;20170;-64
2022/02/19 11:31:54;;;;;;;3.53;0.55;;;8.80;52.80;;;;;;5142323;27;20055;-64
2022/02/19 11:34:26;;;;;;;1.40;0.57;;;8.80;52.70;;;;;;5141328;27;20041;-65
2022/02/19 11:37:10;;;;;;;5.20;0.98;;;8.90;52.80;;;;;;5139395;27;20043;-64
2022/02/19 11:40:00;;;;;;;4.93;0.73;;;8.90;53.00;;;;;;5121334;27;20480;-64
2022/02/19 11:42:40;;;;;;;3.28;0.70;;;8.90;52.90;;;;;;5141475;27;20047;-64
2022/02/19 11:45:27;;;;;;;2.42;0.38;;;9.00;52.60;;;;;;5142559;27;20043;-66
2022/02/19 11:48:16;;;;;;;3.50;0.47;;;8.90;52.00;;;;;;5141226;27;20031;-64
2022/02/19 11:50:44;;;;;;;4.05;0.57;;;8.90;51.90;;;;;;5139031;27;20031;-65
2022/02/19 11:53:26;;;;;;;1.88;0.47;;;8.80;51.90;;;;;;5140033;27;20043;-66
2022/02/19 11:55:54;;;;;;;3.35;1.30;;;8.80;52.10;;;;;;5140639;27;20052;-64
2022/02/19 11:58:26;;;;;;;2.67;0.20;;;8.80;52.50;;;;;;5143290;27;20137;-65
2022/02/19 12:01:02;;;;;;;1.73;0.32;;;8.80;53.10;;;;;;5140211;27;20121;-65
2022/02/19 12:03:32;;;;;;;7.78;0.70;;;9.00;53.70;;;;;;5142035;27;20043;-65
2022/02/19 12:06:08;;;;;;;5.03;0.70;;;9.10;53.70;;;;;;5141488;27;20484;-65
2022/02/19 12:09:17;;;;;;;2.50;0.60;;;9.10;53.50;;;;;;5141831;27;20561;-64
2022/02/19 12:12:07;;;;;;;2.20;0.60;;;9.20;53.20;;;;;;5141707;27;20137;-67
2022/02/19 12:14:57;;;;;;;10.05;1.38;;;9.10;52.10;;;;;;5142169;27;20448;-66
2022/02/19 12:17:46;;;;;;;1.58;0.30;;;9.10;51.60;;;;;;5142657;27;20054;-65
2022/02/19 12:20:29;;;;;;;0.75;0.38;;;9.10;51.30;;;;;;5129678;27;20058;-65
2022/02/19 12:23:01;;;;;;;3.53;0.47;;;9.10;51.40;;;;;;5143378;27;20045;-66
2022/02/19 12:26:09;;;;;;;1.98;0.25;;;9.20;51.60;;;;;;5143238;27;20126;-65
2022/02/19 12:28:42;;;;;;;2.03;0.40;;;9.20;52.20;;;;;;5142901;27;20057;-65
2022/02/19 12:31:15;;;;;;;3.50;0.60;;;9.20;52.30;;;;;;5125069;27;20050;-64
2022/02/19 12:33:47;;;;;;;2.95;0.38;;;9.30;51.80;;;;;;5141928;27;20099;-65
2022/02/19 12:36:15;;;;;;;2.35;0.28;;;9.30;51.70;;;;;;5137654;27;20042;-65
2022/02/19 12:38:47;;;;;;;3.05;0.30;;;9.30;51.40;;;;;;5132366;27;20339;-65
2022/02/19 12:41:17;;;;;;;1.02;0.40;;;9.20;51.70;;;;;;5134241;27;20046;-64
2022/02/19 12:44:13;;;;;;;3.88;0.47;;;9.30;51.20;;;;;;5132762;27;20039;-64
2022/02/19 12:46:41;;;;;;;1.00;0.32;;;9.30;51.40;;;;;;5134166;27;20031;-65
2022/02/19 12:49:12;;;;;;;3.50;0.60;;;9.30;51.80;;;;;;5121858;27;20097;-64
2022/02/19 12:51:42;;;;;;;0.90;0.38;;;9.30;52.30;;;;;;5133381;27;20126;-64
2022/02/19 12:54:12;;;;;;;4.40;0.90;;;9.30;52.50;;;;;;5131278;27;20043;-64
2022/02/19 12:56:42;;;;;;;1.73;0.55;;;9.30;52.70;;;;;;5134249;27;20113;-65
2022/02/19 12:59:14;;;;;;;3.33;0.40;;;9.20;52.50;;;;;;5130439;27;20043;-65
2022/02/19 13:01:43;;;;;;;2.83;0.65;;;9.20;53.00;;;;;;5135422;27;20070;-65
2022/02/19 13:07:22;;;;;;;2.33;0.35;;;9.30;53.40;;;;;;5134011;27;20604;-64
2022/02/19 13:09:50;;;;;;;1.67;0.30;;;9.40;53.80;;;;;;5121129;28;20039;-65
2022/02/19 13:12:24;;;;;;;5.93;0.63;;;9.40;53.90;;;;;;5119971;28;20093;-65
2022/02/19 13:14:56;;;;;;;4.07;0.80;;;9.40;53.80;;;;;;5117350;28;20048;-65
2022/02/19 13:17:24;;;;;;;2.60;0.60;;;9.40;53.60;;;;;;5117614;27;20308;-66
2022/02/19 13:19:52;;;;;;;1.67;0.60;;;9.30;53.30;;;;;;5114255;28;20158;-65
2022/02/19 13:22:25;;;;;;;5.40;1.05;;;9.20;53.40;;;;;;5115772;28;20042;-64
2022/02/19 13:24:53;;;;;;;1.52;0.30;;;9.20;53.80;;;;;;5117678;28;20115;-65
2022/02/19 13:27:25;;;;;;;2.78;0.70;;;9.20;53.80;;;;;;5109781;28;20047;-64
2022/02/19 13:29:54;;;;;;;2.75;0.73;;;9.20;53.70;;;;;;5095951;28;20802;-64
2022/02/19 13:32:24;;;;;;;2.63;0.40;;;9.20;54.30;;;;;;5118347;28;20750;-64